<?xml version="1.0" encoding="UTF-8" standalone="no" ?>
<gpx xmlns="http://www.topografix.com/GPX/1/1" xmlns:xsi="http://www.w3.org/2001/XMLSchema-instance" xsi:schemaLocation="http://www.topografix.com/GPX/1/1 http://www.topografix.com/GPX/1/1/gpx.xsd" version="1.1" creator="VisuGPX - https://www.visugpx.com">
  <metadata>
    <name>Puech de l'ESCABAULT Montpezat</name>
    <desc><![CDATA[nouveau sentier ouvert en plusieurs fois (1 heure max) ]]></desc>
  </metadata>
  <trk>
    <name><![CDATA[OpenLayers.Feature.Vector_30068]]></name>
    <trkseg>
      <trkpt lat="43.84597" lon="4.17005">
        <ele>170</ele>
        <time>2020-05-09T16:56:31Z</time>
      </trkpt>
      <trkpt lat="43.84597" lon="4.17006">
        <ele>171</ele>
        <time>2020-05-09T16:56:02Z</time>
      </trkpt>
      <trkpt lat="43.84596" lon="4.17004">
        <ele>171</ele>
        <time>2020-05-09T16:53:40Z</time>
      </trkpt>
      <trkpt lat="43.84596" lon="4.17003">
        <ele>170</ele>
        <time>2020-05-09T16:53:33Z</time>
      </trkpt>
      <trkpt lat="43.84595" lon="4.16995">
        <ele>170</ele>
        <time>2020-05-09T16:53:26Z</time>
      </trkpt>
      <trkpt lat="43.84597" lon="4.16988">
        <ele>172</ele>
        <time>2020-05-09T16:53:20Z</time>
      </trkpt>
      <trkpt lat="43.84599" lon="4.16983">
        <ele>170</ele>
        <time>2020-05-09T16:53:14Z</time>
      </trkpt>
      <trkpt lat="43.84601" lon="4.16981">
        <ele>170</ele>
        <time>2020-05-09T16:53:03Z</time>
      </trkpt>
      <trkpt lat="43.84603" lon="4.16978">
        <ele>170</ele>
        <time>2020-05-09T16:52:21Z</time>
      </trkpt>
      <trkpt lat="43.84606" lon="4.16968">
        <ele>170</ele>
        <time>2020-05-09T16:52:13Z</time>
      </trkpt>
      <trkpt lat="43.84609" lon="4.16961">
        <ele>170</ele>
        <time>2020-05-09T16:52:07Z</time>
      </trkpt>
      <trkpt lat="43.84609" lon="4.1696">
        <ele>170</ele>
        <time>2020-05-09T16:52:03Z</time>
      </trkpt>
      <trkpt lat="43.84609" lon="4.16954">
        <ele>173</ele>
        <time>2020-05-09T16:51:55Z</time>
      </trkpt>
      <trkpt lat="43.84604" lon="4.16948">
        <ele>171</ele>
        <time>2020-05-09T16:51:24Z</time>
      </trkpt>
      <trkpt lat="43.84604" lon="4.16948">
        <ele>171</ele>
      </trkpt>
      <trkpt lat="43.84594" lon="4.16911">
        <ele>171</ele>
      </trkpt>
      <trkpt lat="43.84594" lon="4.16911">
        <ele>171</ele>
      </trkpt>
      <trkpt lat="43.84594" lon="4.16911">
        <ele>171</ele>
      </trkpt>
      <trkpt lat="43.84594" lon="4.16911">
        <ele>171</ele>
      </trkpt>
      <trkpt lat="43.84589" lon="4.16907">
        <ele>171</ele>
      </trkpt>
      <trkpt lat="43.84583" lon="4.16896">
        <ele>171</ele>
      </trkpt>
      <trkpt lat="43.84583" lon="4.16896">
        <ele>171</ele>
        <time>2020-05-09T16:35:38Z</time>
      </trkpt>
      <trkpt lat="43.84581" lon="4.16891">
        <ele>171</ele>
        <time>2020-05-09T16:35:05Z</time>
      </trkpt>
      <trkpt lat="43.8458" lon="4.16889">
        <ele>171</ele>
        <time>2020-05-09T16:34:58Z</time>
      </trkpt>
      <trkpt lat="43.8458" lon="4.16887">
        <ele>171</ele>
        <time>2020-05-09T16:34:41Z</time>
      </trkpt>
      <trkpt lat="43.84581" lon="4.16888">
        <ele>171</ele>
        <time>2020-05-09T16:34:34Z</time>
      </trkpt>
      <trkpt lat="43.84577" lon="4.16886">
        <ele>171</ele>
      </trkpt>
      <trkpt lat="43.84577" lon="4.16886">
        <ele>171</ele>
      </trkpt>
      <trkpt lat="43.84577" lon="4.16886">
        <ele>171</ele>
        <time>2020-05-09T16:33:59Z</time>
      </trkpt>
      <trkpt lat="43.8458" lon="4.16885">
        <ele>171</ele>
        <time>2020-05-09T16:33:42Z</time>
      </trkpt>
      <trkpt lat="43.84579" lon="4.16883">
        <ele>171</ele>
      </trkpt>
      <trkpt lat="43.84579" lon="4.16882">
        <ele>171</ele>
      </trkpt>
      <trkpt lat="43.84579" lon="4.16882">
        <ele>171</ele>
        <time>2020-05-09T15:20:15Z</time>
      </trkpt>
      <trkpt lat="43.84573" lon="4.16877">
        <ele>171</ele>
        <time>2020-05-09T15:20:33Z</time>
      </trkpt>
      <trkpt lat="43.84571" lon="4.16877">
        <ele>171</ele>
        <time>2020-05-09T15:20:34Z</time>
      </trkpt>
      <trkpt lat="43.84569" lon="4.16871">
        <ele>171</ele>
        <time>2020-05-09T15:20:38Z</time>
      </trkpt>
      <trkpt lat="43.84565" lon="4.16871">
        <ele>171</ele>
        <time>2020-05-09T15:20:41Z</time>
      </trkpt>
      <trkpt lat="43.84563" lon="4.16865">
        <ele>171</ele>
        <time>2020-05-09T15:20:46Z</time>
      </trkpt>
      <trkpt lat="43.84563" lon="4.16859">
        <ele>171</ele>
        <time>2020-05-09T15:20:50Z</time>
      </trkpt>
      <trkpt lat="43.84562" lon="4.16851">
        <ele>171</ele>
        <time>2020-05-09T15:20:54Z</time>
      </trkpt>
      <trkpt lat="43.84563" lon="4.16847">
        <ele>171</ele>
        <time>2020-05-09T15:20:56Z</time>
      </trkpt>
      <trkpt lat="43.84554" lon="4.16836">
        <ele>176</ele>
        <time>2020-05-09T15:21:02Z</time>
      </trkpt>
      <trkpt lat="43.84547" lon="4.16833">
        <ele>171</ele>
        <time>2020-05-09T15:21:07Z</time>
      </trkpt>
      <trkpt lat="43.84546" lon="4.16832">
        <ele>171</ele>
        <time>2020-05-09T15:21:10Z</time>
      </trkpt>
      <trkpt lat="43.84546" lon="4.16821">
        <ele>171</ele>
        <time>2020-05-09T15:21:16Z</time>
      </trkpt>
      <trkpt lat="43.84542" lon="4.1681">
        <ele>171</ele>
        <time>2020-05-09T15:21:20Z</time>
      </trkpt>
      <trkpt lat="43.84535" lon="4.16807">
        <ele>163</ele>
        <time>2020-05-09T15:21:23Z</time>
      </trkpt>
      <trkpt lat="43.84529" lon="4.16803">
        <ele>163</ele>
        <time>2020-05-09T15:21:25Z</time>
      </trkpt>
      <trkpt lat="43.84517" lon="4.16803">
        <ele>163</ele>
        <time>2020-05-09T15:21:30Z</time>
      </trkpt>
      <trkpt lat="43.84515" lon="4.16801">
        <ele>163</ele>
        <time>2020-05-09T15:21:32Z</time>
      </trkpt>
      <trkpt lat="43.84517" lon="4.16793">
        <ele>163</ele>
        <time>2020-05-09T15:21:37Z</time>
      </trkpt>
      <trkpt lat="43.84519" lon="4.16783">
        <ele>160</ele>
        <time>2020-05-09T15:21:42Z</time>
      </trkpt>
      <trkpt lat="43.84519" lon="4.16781">
        <ele>160</ele>
        <time>2020-05-09T15:21:43Z</time>
      </trkpt>
      <trkpt lat="43.8452" lon="4.16778">
        <ele>160</ele>
        <time>2020-05-09T15:21:45Z</time>
      </trkpt>
      <trkpt lat="43.84517" lon="4.16774">
        <ele>172</ele>
        <time>2020-05-09T15:21:50Z</time>
      </trkpt>
      <trkpt lat="43.84521" lon="4.16758">
        <ele>160</ele>
        <time>2020-05-09T15:21:56Z</time>
      </trkpt>
      <trkpt lat="43.84522" lon="4.16748">
        <ele>160</ele>
        <time>2020-05-09T15:21:59Z</time>
      </trkpt>
      <trkpt lat="43.84526" lon="4.16723">
        <ele>171</ele>
        <time>2020-05-09T15:22:06Z</time>
      </trkpt>
      <trkpt lat="43.84529" lon="4.16717">
        <ele>160</ele>
        <time>2020-05-09T15:22:11Z</time>
      </trkpt>
      <trkpt lat="43.84529" lon="4.16717">
        <ele>160</ele>
        <time>2020-05-09T15:22:12Z</time>
      </trkpt>
      <trkpt lat="43.84531" lon="4.1671">
        <ele>160</ele>
        <time>2020-05-09T15:22:16Z</time>
      </trkpt>
      <trkpt lat="43.84537" lon="4.16696">
        <ele>155</ele>
        <time>2020-05-09T15:22:22Z</time>
      </trkpt>
      <trkpt lat="43.84537" lon="4.16685">
        <ele>155</ele>
        <time>2020-05-09T15:22:26Z</time>
      </trkpt>
      <trkpt lat="43.84539" lon="4.16673">
        <ele>155</ele>
        <time>2020-05-09T15:22:30Z</time>
      </trkpt>
      <trkpt lat="43.84541" lon="4.16666">
        <ele>155</ele>
        <time>2020-05-09T15:22:34Z</time>
      </trkpt>
      <trkpt lat="43.84542" lon="4.16662">
        <ele>155</ele>
        <time>2020-05-09T15:22:36Z</time>
      </trkpt>
      <trkpt lat="43.84541" lon="4.16657">
        <ele>155</ele>
        <time>2020-05-09T15:22:38Z</time>
      </trkpt>
      <trkpt lat="43.84538" lon="4.16646">
        <ele>155</ele>
        <time>2020-05-09T15:22:43Z</time>
      </trkpt>
      <trkpt lat="43.84539" lon="4.16636">
        <ele>155</ele>
        <time>2020-05-09T15:22:47Z</time>
      </trkpt>
      <trkpt lat="43.84539" lon="4.1663">
        <ele>155</ele>
        <time>2020-05-09T15:22:49Z</time>
      </trkpt>
      <trkpt lat="43.84544" lon="4.16621">
        <ele>163</ele>
        <time>2020-05-09T15:22:53Z</time>
      </trkpt>
      <trkpt lat="43.84552" lon="4.16607">
        <ele>163</ele>
        <time>2020-05-09T15:22:59Z</time>
      </trkpt>
      <trkpt lat="43.84553" lon="4.16604">
        <ele>163</ele>
        <time>2020-05-09T15:23:00Z</time>
      </trkpt>
      <trkpt lat="43.84553" lon="4.16596">
        <ele>163</ele>
        <time>2020-05-09T15:23:59Z</time>
      </trkpt>
      <trkpt lat="43.84553" lon="4.16596">
        <ele>163</ele>
      </trkpt>
      <trkpt lat="43.84552" lon="4.16594">
        <ele>163</ele>
      </trkpt>
      <trkpt lat="43.84552" lon="4.16594">
        <ele>163</ele>
        <time>2020-05-09T15:24:37Z</time>
      </trkpt>
      <trkpt lat="43.84551" lon="4.16588">
        <ele>163</ele>
        <time>2020-05-09T15:24:41Z</time>
      </trkpt>
      <trkpt lat="43.84549" lon="4.16577">
        <ele>163</ele>
        <time>2020-05-09T15:24:45Z</time>
      </trkpt>
      <trkpt lat="43.84543" lon="4.16558">
        <ele>163</ele>
        <time>2020-05-09T15:24:52Z</time>
      </trkpt>
      <trkpt lat="43.84544" lon="4.1655">
        <ele>163</ele>
        <time>2020-05-09T15:24:55Z</time>
      </trkpt>
      <trkpt lat="43.84545" lon="4.16537">
        <ele>158</ele>
        <time>2020-05-09T15:25:01Z</time>
      </trkpt>
      <trkpt lat="43.84541" lon="4.16529">
        <ele>146</ele>
        <time>2020-05-09T15:25:05Z</time>
      </trkpt>
      <trkpt lat="43.84542" lon="4.16519">
        <ele>158</ele>
        <time>2020-05-09T15:25:09Z</time>
      </trkpt>
      <trkpt lat="43.84543" lon="4.1651">
        <ele>158</ele>
        <time>2020-05-09T15:25:12Z</time>
      </trkpt>
      <trkpt lat="43.84552" lon="4.16494">
        <ele>158</ele>
        <time>2020-05-09T15:25:19Z</time>
      </trkpt>
      <trkpt lat="43.84555" lon="4.1648">
        <ele>158</ele>
        <time>2020-05-09T15:25:24Z</time>
      </trkpt>
      <trkpt lat="43.84554" lon="4.16471">
        <ele>158</ele>
        <time>2020-05-09T15:25:28Z</time>
      </trkpt>
      <trkpt lat="43.84557" lon="4.16466">
        <ele>158</ele>
        <time>2020-05-09T15:25:30Z</time>
      </trkpt>
      <trkpt lat="43.84564" lon="4.16459">
        <ele>158</ele>
        <time>2020-05-09T15:25:35Z</time>
      </trkpt>
      <trkpt lat="43.84563" lon="4.16456">
        <ele>151</ele>
        <time>2020-05-09T15:25:42Z</time>
      </trkpt>
      <trkpt lat="43.84563" lon="4.16456">
        <ele>151</ele>
        <time>2020-05-09T15:25:43Z</time>
      </trkpt>
      <trkpt lat="43.84563" lon="4.1645">
        <ele>151</ele>
        <time>2020-05-09T15:25:46Z</time>
      </trkpt>
      <trkpt lat="43.84563" lon="4.16431">
        <ele>164</ele>
        <time>2020-05-09T15:25:51Z</time>
      </trkpt>
      <trkpt lat="43.8457" lon="4.16425">
        <ele>151</ele>
        <time>2020-05-09T15:25:57Z</time>
      </trkpt>
      <trkpt lat="43.84574" lon="4.16422">
        <ele>151</ele>
        <time>2020-05-09T15:25:59Z</time>
      </trkpt>
      <trkpt lat="43.84582" lon="4.16433">
        <ele>162</ele>
        <time>2020-05-09T15:26:05Z</time>
      </trkpt>
      <trkpt lat="43.84587" lon="4.16443">
        <ele>151</ele>
        <time>2020-05-09T15:26:09Z</time>
      </trkpt>
      <trkpt lat="43.8459" lon="4.16451">
        <ele>151</ele>
        <time>2020-05-09T15:26:13Z</time>
      </trkpt>
      <trkpt lat="43.84596" lon="4.16451">
        <ele>151</ele>
        <time>2020-05-09T15:26:17Z</time>
      </trkpt>
      <trkpt lat="43.84599" lon="4.16452">
        <ele>151</ele>
        <time>2020-05-09T15:26:22Z</time>
      </trkpt>
      <trkpt lat="43.84606" lon="4.16455">
        <ele>151</ele>
        <time>2020-05-09T15:26:26Z</time>
      </trkpt>
      <trkpt lat="43.84616" lon="4.16459">
        <ele>158</ele>
        <time>2020-05-09T15:26:31Z</time>
      </trkpt>
      <trkpt lat="43.84621" lon="4.16456">
        <ele>151</ele>
        <time>2020-05-09T15:26:34Z</time>
      </trkpt>
      <trkpt lat="43.84624" lon="4.16454">
        <ele>151</ele>
        <time>2020-05-09T15:26:36Z</time>
      </trkpt>
      <trkpt lat="43.84632" lon="4.16458">
        <ele>133</ele>
        <time>2020-05-09T15:26:40Z</time>
      </trkpt>
      <trkpt lat="43.8464" lon="4.16468">
        <ele>149</ele>
        <time>2020-05-09T15:26:45Z</time>
      </trkpt>
      <trkpt lat="43.8464" lon="4.16468">
        <ele>141</ele>
      </trkpt>
      <trkpt lat="43.84644" lon="4.16473">
        <ele>141</ele>
      </trkpt>
      <trkpt lat="43.84644" lon="4.16473">
        <ele>141</ele>
        <time>2020-05-02T13:50:21Z</time>
      </trkpt>
      <trkpt lat="43.84647" lon="4.16478">
        <ele>141</ele>
        <time>2020-05-02T13:50:14Z</time>
      </trkpt>
      <trkpt lat="43.84648" lon="4.16479">
        <ele>141</ele>
        <time>2020-05-02T13:50:07Z</time>
      </trkpt>
      <trkpt lat="43.84648" lon="4.16479">
        <ele>141</ele>
        <time>2020-05-02T13:50:02Z</time>
      </trkpt>
      <trkpt lat="43.84647" lon="4.1648">
        <ele>141</ele>
        <time>2020-05-02T13:49:56Z</time>
      </trkpt>
      <trkpt lat="43.84649" lon="4.16482">
        <ele>141</ele>
        <time>2020-05-02T13:49:46Z</time>
      </trkpt>
      <trkpt lat="43.84654" lon="4.16492">
        <ele>141</ele>
        <time>2020-05-02T13:49:41Z</time>
      </trkpt>
      <trkpt lat="43.84655" lon="4.165">
        <ele>141</ele>
        <time>2020-05-02T13:49:39Z</time>
      </trkpt>
      <trkpt lat="43.84656" lon="4.16517">
        <ele>141</ele>
        <time>2020-05-02T13:49:34Z</time>
      </trkpt>
      <trkpt lat="43.84659" lon="4.16528">
        <ele>141</ele>
        <time>2020-05-02T13:49:30Z</time>
      </trkpt>
      <trkpt lat="43.84662" lon="4.1654">
        <ele>139</ele>
        <time>2020-05-02T13:49:26Z</time>
      </trkpt>
      <trkpt lat="43.8467" lon="4.16564">
        <ele>137</ele>
        <time>2020-05-02T13:49:21Z</time>
      </trkpt>
      <trkpt lat="43.84671" lon="4.16585">
        <ele>144</ele>
        <time>2020-05-02T13:49:16Z</time>
      </trkpt>
      <trkpt lat="43.84673" lon="4.1661">
        <ele>144</ele>
        <time>2020-05-02T13:49:09Z</time>
      </trkpt>
      <trkpt lat="43.84674" lon="4.16618">
        <ele>144</ele>
        <time>2020-05-02T13:49:05Z</time>
      </trkpt>
      <trkpt lat="43.8468" lon="4.16634">
        <ele>137</ele>
        <time>2020-05-02T13:48:59Z</time>
      </trkpt>
      <trkpt lat="43.84683" lon="4.16652">
        <ele>144</ele>
        <time>2020-05-02T13:48:53Z</time>
      </trkpt>
      <trkpt lat="43.84684" lon="4.16672">
        <ele>144</ele>
        <time>2020-05-02T13:48:48Z</time>
      </trkpt>
      <trkpt lat="43.84688" lon="4.16691">
        <ele>144</ele>
        <time>2020-05-02T13:48:44Z</time>
      </trkpt>
      <trkpt lat="43.84703" lon="4.16703">
        <ele>144</ele>
        <time>2020-05-02T13:48:39Z</time>
      </trkpt>
      <trkpt lat="43.84724" lon="4.16704">
        <ele>128</ele>
        <time>2020-05-02T13:48:32Z</time>
      </trkpt>
    </trkseg>
  </trk>
</gpx>